AAL202 KIND-KCLT
Flight info
| Callsign | AAL202 |
|---|---|
| Flight time | 1h 0m |
| Altitude | 35000 |
| Route | DAWNN1 IIU DCT TAFTT PARQR4 |
| Aircraft | B738/M-SDE2E3FGHIRWXY/LB1 |
Departure
| Time | 2026-05-07 02:18 |
|---|---|
| Airport | Indianapolis International Airport (KIND) |
Arrival
| Time | 2026-05-07 03:18 |
|---|---|
| Airport | Charlotte Douglas International Airport (KCLT) |
| Time | Latitude | Longitude | Altitude | Speed | Heading |
|---|---|---|---|---|---|
| 2026-05-07 01:53 | 39.71750 | -86.29800 | 780 ft | 0 kts | 128° |
| 2026-05-07 02:11 | 39.71761 | -86.29817 | 780 ft | 10 kts | 129° |
| 2026-05-07 02:11 | 39.71792 | -86.29873 | 780 ft | 5 kts | 76° |
| 2026-05-07 02:12 | 39.71795 | -86.29869 | 780 ft | 2 kts | 64° |
| 2026-05-07 02:12 | 39.71797 | -86.29864 | 780 ft | 0 kts | 64° |
| 2026-05-07 02:14 | 39.71823 | -86.29844 | 780 ft | 11 kts | 27° |
| 2026-05-07 02:14 | 39.71910 | -86.29797 | 780 ft | 14 kts | 30° |
| 2026-05-07 02:14 | 39.71991 | -86.29732 | 780 ft | 13 kts | 36° |
| 2026-05-07 02:14 | 39.72073 | -86.29671 | 780 ft | 17 kts | 34° |
| 2026-05-07 02:15 | 39.72179 | -86.29612 | 781 ft | 18 kts | 335° |
| 2026-05-07 02:15 | 39.72258 | -86.29701 | 780 ft | 11 kts | 326° |
| 2026-05-07 02:15 | 39.72310 | -86.29656 | 780 ft | 10 kts | 48° |
| 2026-05-07 02:15 | 39.72361 | -86.29586 | 780 ft | 11 kts | 47° |
| 2026-05-07 02:16 | 39.72414 | -86.29519 | 780 ft | 11 kts | 44° |
| 2026-05-07 02:16 | 39.72485 | -86.29429 | 780 ft | 18 kts | 44° |
| 2026-05-07 02:16 | 39.72553 | -86.29344 | 780 ft | 21 kts | 44° |
| 2026-05-07 02:16 | 39.72657 | -86.29212 | 780 ft | 20 kts | 44° |
| 2026-05-07 02:17 | 39.72798 | -86.29279 | 779 ft | 20 kts | 301° |
| 2026-05-07 02:17 | 39.72706 | -86.29449 | 778 ft | 52 kts | 225° |
| 2026-05-07 02:17 | 39.72244 | -86.30040 | 780 ft | 132 kts | 224° |
| 2026-05-07 02:17 | 39.71453 | -86.31068 | 1001 ft | 180 kts | 227° |
| 2026-05-07 02:18 | 39.70568 | -86.32296 | 1916 ft | 187 kts | 230° |
| 2026-05-07 02:18 | 39.69990 | -86.33123 | 2786 ft | 178 kts | 227° |
| 2026-05-07 02:18 | 39.69049 | -86.34083 | 3789 ft | 174 kts | 212° |
| 2026-05-07 02:18 | 39.67838 | -86.34582 | 4161 ft | 205 kts | 179° |
| 2026-05-07 02:19 | 39.66340 | -86.34352 | 4414 ft | 229 kts | 175° |
| 2026-05-07 02:19 | 39.64681 | -86.34122 | 4731 ft | 247 kts | 176° |
| 2026-05-07 02:19 | 39.62916 | -86.33906 | 5092 ft | 266 kts | 176° |
| 2026-05-07 02:19 | 39.61031 | -86.33700 | 5658 ft | 277 kts | 177° |
| 2026-05-07 02:20 | 39.59100 | -86.33507 | 6580 ft | 278 kts | 178° |
| 2026-05-07 02:20 | 39.57168 | -86.33328 | 7492 ft | 278 kts | 179° |
| 2026-05-07 02:20 | 39.55230 | -86.33158 | 8372 ft | 280 kts | 180° |
| 2026-05-07 02:20 | 39.53294 | -86.32995 | 9248 ft | 282 kts | 182° |
| 2026-05-07 02:21 | 39.51328 | -86.32834 | 10082 ft | 284 kts | 183° |
| 2026-05-07 02:21 | 39.49306 | -86.32675 | 10582 ft | 300 kts | 184° |
| 2026-05-07 02:21 | 39.47140 | -86.32512 | 10817 ft | 322 kts | 184° |
| 2026-05-07 02:21 | 39.44859 | -86.32331 | 11378 ft | 332 kts | 184° |
| 2026-05-07 02:22 | 39.42535 | -86.32141 | 12110 ft | 337 kts | 185° |
| 2026-05-07 02:22 | 39.40183 | -86.31950 | 12712 ft | 340 kts | 186° |
| 2026-05-07 02:22 | 39.37829 | -86.31760 | 12970 ft | 339 kts | 186° |
| 2026-05-07 02:22 | 39.35470 | -86.31570 | 12960 ft | 339 kts | 186° |
| 2026-05-07 02:23 | 39.33149 | -86.31337 | 12963 ft | 338 kts | 185° |
| 2026-05-07 02:23 | 39.30818 | -86.31070 | 12962 ft | 335 kts | 185° |
| 2026-05-07 02:23 | 39.28462 | -86.30796 | 12948 ft | 337 kts | 185° |
| 2026-05-07 02:23 | 39.26094 | -86.30529 | 13411 ft | 344 kts | 186° |
| 2026-05-07 02:24 | 39.23752 | -86.30261 | 14308 ft | 341 kts | 186° |
| 2026-05-07 02:24 | 39.21388 | -86.29992 | 15077 ft | 342 kts | 187° |
| 2026-05-07 02:24 | 39.19005 | -86.29728 | 15726 ft | 346 kts | 187° |
| 2026-05-07 02:24 | 39.16592 | -86.29462 | 16388 ft | 350 kts | 187° |
| 2026-05-07 02:25 | 39.14161 | -86.29192 | 17066 ft | 353 kts | 187° |
| 2026-05-07 02:25 | 39.11700 | -86.28919 | 17743 ft | 356 kts | 188° |
| 2026-05-07 02:25 | 39.09214 | -86.28643 | 18388 ft | 360 kts | 188° |
| 2026-05-07 02:25 | 39.06708 | -86.28364 | 18986 ft | 362 kts | 188° |
| 2026-05-07 02:26 | 39.04229 | -86.28087 | 19594 ft | 362 kts | 188° |
| 2026-05-07 02:26 | 39.01686 | -86.27802 | 20253 ft | 362 kts | 189° |
| 2026-05-07 02:26 | 38.99160 | -86.27487 | 20830 ft | 371 kts | 184° |
| 2026-05-07 02:26 | 38.96605 | -86.26341 | 21281 ft | 410 kts | 165° |
| 2026-05-07 02:27 | 38.94208 | -86.24259 | 21798 ft | 432 kts | 154° |
| 2026-05-07 02:27 | 38.92035 | -86.21453 | 22281 ft | 460 kts | 138° |
| 2026-05-07 02:27 | 38.90327 | -86.17858 | 22778 ft | 478 kts | 128° |
| 2026-05-07 02:27 | 38.88807 | -86.14029 | 23216 ft | 486 kts | 126° |
| 2026-05-07 02:28 | 38.87337 | -86.10090 | 23637 ft | 492 kts | 125° |
| 2026-05-07 02:28 | 38.85870 | -86.06097 | 24004 ft | 496 kts | 125° |
| 2026-05-07 02:28 | 38.84387 | -86.02090 | 24387 ft | 498 kts | 126° |
| 2026-05-07 02:28 | 38.82878 | -85.98077 | 24780 ft | 501 kts | 126° |
| 2026-05-07 02:29 | 38.81345 | -85.94064 | 25120 ft | 504 kts | 126° |
| 2026-05-07 02:29 | 38.79784 | -85.90028 | 25521 ft | 506 kts | 127° |
| 2026-05-07 02:29 | 38.78208 | -85.85987 | 25877 ft | 509 kts | 127° |
| 2026-05-07 02:29 | 38.76617 | -85.81927 | 26224 ft | 512 kts | 127° |
| 2026-05-07 02:30 | 38.75010 | -85.77831 | 26566 ft | 516 kts | 127° |
| 2026-05-07 02:30 | 38.73393 | -85.73716 | 26909 ft | 519 kts | 127° |
| 2026-05-07 02:30 | 38.71763 | -85.69571 | 27246 ft | 522 kts | 127° |
| 2026-05-07 02:30 | 38.70126 | -85.65407 | 27577 ft | 525 kts | 127° |
| 2026-05-07 02:31 | 38.68480 | -85.61226 | 27902 ft | 528 kts | 127° |
| 2026-05-07 02:31 | 38.66821 | -85.57017 | 28189 ft | 531 kts | 127° |
| 2026-05-07 02:31 | 38.65152 | -85.52786 | 28503 ft | 534 kts | 127° |
| 2026-05-07 02:31 | 38.63471 | -85.48531 | 28803 ft | 537 kts | 127° |
| 2026-05-07 02:32 | 38.61783 | -85.44263 | 29081 ft | 540 kts | 127° |
| 2026-05-07 02:32 | 38.60082 | -85.39969 | 29344 ft | 542 kts | 127° |
| 2026-05-07 02:32 | 38.58376 | -85.35667 | 29673 ft | 544 kts | 127° |
| 2026-05-07 02:32 | 38.56657 | -85.31341 | 29958 ft | 547 kts | 127° |
| 2026-05-07 02:33 | 38.54951 | -85.27053 | 30169 ft | 549 kts | 127° |
| 2026-05-07 02:33 | 38.53225 | -85.22718 | 30517 ft | 548 kts | 127° |
| 2026-05-07 02:33 | 38.51501 | -85.18388 | 30879 ft | 547 kts | 127° |
| 2026-05-07 02:33 | 38.49775 | -85.14064 | 31180 ft | 547 kts | 127° |
| 2026-05-07 02:34 | 38.48044 | -85.09738 | 31442 ft | 548 kts | 128° |
| 2026-05-07 02:34 | 38.46305 | -85.05402 | 31728 ft | 549 kts | 128° |
| 2026-05-07 02:34 | 38.44571 | -85.01081 | 32026 ft | 549 kts | 128° |
| 2026-05-07 02:34 | 38.42831 | -84.96749 | 32360 ft | 548 kts | 128° |
| 2026-05-07 02:35 | 38.41096 | -84.92436 | 32642 ft | 549 kts | 128° |
| 2026-05-07 02:35 | 38.39348 | -84.88100 | 32904 ft | 549 kts | 129° |
| 2026-05-07 02:35 | 38.37596 | -84.83761 | 33201 ft | 549 kts | 129° |
| 2026-05-07 02:35 | 38.35845 | -84.79429 | 33428 ft | 551 kts | 129° |
| 2026-05-07 02:36 | 38.34087 | -84.75087 | 33701 ft | 551 kts | 129° |
| 2026-05-07 02:36 | 38.32335 | -84.70762 | 34022 ft | 550 kts | 130° |
| 2026-05-07 02:36 | 38.30579 | -84.66430 | 34271 ft | 549 kts | 129° |
| 2026-05-07 02:36 | 38.28857 | -84.62185 | 34615 ft | 546 kts | 129° |
| 2026-05-07 02:37 | 38.27117 | -84.57900 | 34909 ft | 544 kts | 129° |
| 2026-05-07 02:37 | 38.25370 | -84.53615 | 35006 ft | 547 kts | 129° |
| 2026-05-07 02:37 | 38.21834 | -84.44979 | 35007 ft | 551 kts | 129° |
| 2026-05-07 02:38 | 38.18305 | -84.36350 | 34979 ft | 546 kts | 129° |
| 2026-05-07 02:38 | 38.14805 | -84.27808 | 34978 ft | 544 kts | 129° |
| 2026-05-07 02:39 | 38.11299 | -84.19296 | 34976 ft | 542 kts | 129° |
| 2026-05-07 02:39 | 38.07800 | -84.10825 | 34982 ft | 541 kts | 129° |
| 2026-05-07 02:40 | 38.04302 | -84.02379 | 34977 ft | 541 kts | 129° |
| 2026-05-07 02:40 | 38.00801 | -83.93942 | 34977 ft | 540 kts | 129° |
| 2026-05-07 02:41 | 37.97318 | -83.85575 | 34971 ft | 540 kts | 128° |
| 2026-05-07 02:41 | 37.93801 | -83.77145 | 34976 ft | 541 kts | 128° |
| 2026-05-07 02:42 | 37.90276 | -83.68721 | 34988 ft | 542 kts | 128° |
| 2026-05-07 02:42 | 37.86734 | -83.60275 | 34990 ft | 543 kts | 128° |
| 2026-05-07 02:43 | 37.83176 | -83.51817 | 34971 ft | 544 kts | 128° |
| 2026-05-07 02:43 | 37.79607 | -83.43356 | 35009 ft | 545 kts | 128° |
| 2026-05-07 02:44 | 37.76047 | -83.34936 | 34959 ft | 547 kts | 128° |
| 2026-05-07 02:44 | 37.72457 | -83.26468 | 35018 ft | 548 kts | 128° |
| 2026-05-07 02:45 | 37.68845 | -83.17973 | 35028 ft | 549 kts | 129° |
| 2026-05-07 02:45 | 37.65218 | -83.09462 | 35021 ft | 551 kts | 128° |
| 2026-05-07 02:46 | 37.61577 | -83.00942 | 35015 ft | 552 kts | 128° |
| 2026-05-07 02:46 | 37.57916 | -82.92400 | 34666 ft | 555 kts | 128° |
| 2026-05-07 02:47 | 37.56088 | -82.88134 | 34436 ft | 550 kts | 128° |
| 2026-05-07 02:47 | 37.54213 | -82.83986 | 34187 ft | 536 kts | 136° |
| 2026-05-07 02:47 | 37.51840 | -82.80553 | 33955 ft | 510 kts | 150° |
| 2026-05-07 02:47 | 37.49269 | -82.77485 | 33634 ft | 509 kts | 150° |
| 2026-05-07 02:48 | 37.46688 | -82.74438 | 33368 ft | 509 kts | 150° |
| 2026-05-07 02:48 | 37.44105 | -82.71368 | 33121 ft | 511 kts | 150° |
| 2026-05-07 02:48 | 37.41532 | -82.68273 | 32862 ft | 513 kts | 149° |
| 2026-05-07 02:48 | 37.38966 | -82.65152 | 32611 ft | 513 kts | 149° |
| 2026-05-07 02:49 | 37.36406 | -82.62016 | 32373 ft | 514 kts | 149° |
| 2026-05-07 02:49 | 37.33850 | -82.58879 | 32112 ft | 514 kts | 148° |
| 2026-05-07 02:49 | 37.31322 | -82.55774 | 31866 ft | 513 kts | 148° |
| 2026-05-07 02:49 | 37.28769 | -82.52645 | 31604 ft | 512 kts | 148° |
| 2026-05-07 02:50 | 37.26219 | -82.49528 | 31361 ft | 513 kts | 148° |
| 2026-05-07 02:50 | 37.23663 | -82.46411 | 31126 ft | 511 kts | 148° |
| 2026-05-07 02:50 | 37.21123 | -82.43311 | 30844 ft | 506 kts | 148° |
| 2026-05-07 02:50 | 37.18614 | -82.40251 | 30595 ft | 501 kts | 148° |
| 2026-05-07 02:51 | 37.16122 | -82.37217 | 30324 ft | 497 kts | 148° |
| 2026-05-07 02:51 | 37.13653 | -82.34217 | 30088 ft | 492 kts | 148° |
| 2026-05-07 02:51 | 37.08712 | -82.28244 | 29956 ft | 497 kts | 148° |
| 2026-05-07 02:52 | 37.03721 | -82.22260 | 29944 ft | 489 kts | 152° |
| 2026-05-07 02:52 | 37.00986 | -82.19998 | 29987 ft | 461 kts | 165° |
| 2026-05-07 02:52 | 36.98146 | -82.18130 | 29949 ft | 462 kts | 166° |
| 2026-05-07 02:53 | 36.92447 | -82.14324 | 29956 ft | 466 kts | 164° |
| 2026-05-07 02:53 | 36.86902 | -82.10439 | 29964 ft | 442 kts | 165° |
| 2026-05-07 02:54 | 36.84262 | -82.08596 | 29958 ft | 427 kts | 165° |
| 2026-05-07 02:54 | 36.81709 | -82.06829 | 29971 ft | 413 kts | 166° |
| 2026-05-07 02:54 | 36.79233 | -82.05125 | 29892 ft | 402 kts | 166° |
| 2026-05-07 02:54 | 36.76762 | -82.03449 | 29029 ft | 410 kts | 166° |
| 2026-05-07 02:55 | 36.74186 | -82.01732 | 27653 ft | 431 kts | 165° |
| 2026-05-07 02:55 | 36.71487 | -81.99923 | 26687 ft | 443 kts | 163° |
| 2026-05-07 02:55 | 36.68818 | -81.98087 | 26499 ft | 433 kts | 163° |
| 2026-05-07 02:55 | 36.66193 | -81.96274 | 26230 ft | 432 kts | 163° |
| 2026-05-07 02:56 | 36.63537 | -81.94456 | 25988 ft | 439 kts | 163° |
| 2026-05-07 02:56 | 36.60843 | -81.92618 | 25716 ft | 443 kts | 162° |
| 2026-05-07 02:56 | 36.58149 | -81.90777 | 25436 ft | 440 kts | 162° |
| 2026-05-07 02:56 | 36.55477 | -81.88948 | 25124 ft | 437 kts | 162° |
| 2026-05-07 02:57 | 36.52820 | -81.87134 | 24853 ft | 434 kts | 162° |
| 2026-05-07 02:57 | 36.50179 | -81.85336 | 24603 ft | 431 kts | 162° |
| 2026-05-07 02:57 | 36.47554 | -81.83552 | 24344 ft | 427 kts | 162° |
| 2026-05-07 02:57 | 36.44975 | -81.81795 | 24061 ft | 419 kts | 162° |
| 2026-05-07 02:58 | 36.42471 | -81.80092 | 23739 ft | 414 kts | 162° |
| 2026-05-07 02:58 | 36.39945 | -81.78380 | 23273 ft | 412 kts | 162° |
| 2026-05-07 02:58 | 36.37427 | -81.76676 | 22781 ft | 409 kts | 162° |
| 2026-05-07 02:58 | 36.34936 | -81.74989 | 22359 ft | 405 kts | 162° |
| 2026-05-07 02:59 | 36.32471 | -81.73322 | 21947 ft | 402 kts | 162° |
| 2026-05-07 02:59 | 36.30016 | -81.71664 | 21532 ft | 401 kts | 162° |
| 2026-05-07 02:59 | 36.27574 | -81.70016 | 21097 ft | 399 kts | 162° |
| 2026-05-07 02:59 | 36.25140 | -81.68375 | 20681 ft | 397 kts | 162° |
| 2026-05-07 03:00 | 36.22716 | -81.66741 | 20238 ft | 395 kts | 162° |
| 2026-05-07 03:00 | 36.20318 | -81.65125 | 19816 ft | 390 kts | 161° |
| 2026-05-07 03:00 | 36.17937 | -81.63522 | 19438 ft | 388 kts | 161° |
| 2026-05-07 03:00 | 36.15573 | -81.61931 | 19049 ft | 386 kts | 161° |
| 2026-05-07 03:01 | 36.13213 | -81.60345 | 18634 ft | 386 kts | 161° |
| 2026-05-07 03:01 | 36.10856 | -81.58762 | 18220 ft | 385 kts | 161° |
| 2026-05-07 03:01 | 36.08511 | -81.57186 | 17766 ft | 384 kts | 161° |
| 2026-05-07 03:01 | 36.06166 | -81.55610 | 17336 ft | 382 kts | 160° |
| 2026-05-07 03:02 | 36.03834 | -81.54046 | 16905 ft | 381 kts | 160° |
| 2026-05-07 03:02 | 36.02291 | -81.53012 | 16621 ft | 378 kts | 160° |
| 2026-05-07 03:02 | 35.99276 | -81.50985 | 16080 ft | 367 kts | 160° |
| 2026-05-07 03:02 | 35.97769 | -81.49974 | 15819 ft | 362 kts | 160° |
| 2026-05-07 03:03 | 35.94877 | -81.48037 | 15309 ft | 353 kts | 160° |
| 2026-05-07 03:03 | 35.92733 | -81.46606 | 14943 ft | 348 kts | 159° |
| 2026-05-07 03:03 | 35.90617 | -81.45195 | 14572 ft | 344 kts | 159° |
| 2026-05-07 03:03 | 35.89201 | -81.44251 | 14329 ft | 342 kts | 159° |
| 2026-05-07 03:04 | 35.87114 | -81.42861 | 13982 ft | 341 kts | 159° |
| 2026-05-07 03:04 | 35.85016 | -81.41466 | 13639 ft | 344 kts | 158° |
| 2026-05-07 03:04 | 35.82904 | -81.40061 | 13245 ft | 345 kts | 158° |
| 2026-05-07 03:04 | 35.80800 | -81.38658 | 12858 ft | 343 kts | 158° |
| 2026-05-07 03:05 | 35.78711 | -81.37265 | 12483 ft | 340 kts | 158° |
| 2026-05-07 03:05 | 35.76645 | -81.35853 | 12123 ft | 338 kts | 156° |
| 2026-05-07 03:05 | 35.74607 | -81.34410 | 11762 ft | 336 kts | 156° |
| 2026-05-07 03:05 | 35.72617 | -81.32990 | 11411 ft | 333 kts | 155° |
| 2026-05-07 03:06 | 35.70614 | -81.31587 | 11057 ft | 328 kts | 161° |
| 2026-05-07 03:06 | 35.68498 | -81.30951 | 10966 ft | 301 kts | 186° |
| 2026-05-07 03:06 | 35.66527 | -81.31440 | 10943 ft | 275 kts | 211° |
| 2026-05-07 03:06 | 35.65103 | -81.32784 | 10951 ft | 254 kts | 228° |
| 2026-05-07 03:07 | 35.63672 | -81.33970 | 10937 ft | 249 kts | 202° |
| 2026-05-07 03:07 | 35.61945 | -81.34097 | 10937 ft | 256 kts | 174° |
| 2026-05-07 03:07 | 35.60276 | -81.33093 | 10969 ft | 289 kts | 146° |
| 2026-05-07 03:07 | 35.58925 | -81.31045 | 10858 ft | 327 kts | 122° |
| 2026-05-07 03:08 | 35.58045 | -81.28443 | 10644 ft | 333 kts | 114° |
| 2026-05-07 03:08 | 35.57278 | -81.25750 | 10399 ft | 333 kts | 112° |
| 2026-05-07 03:08 | 35.56539 | -81.23072 | 10158 ft | 328 kts | 112° |
| 2026-05-07 03:08 | 35.55827 | -81.20461 | 9889 ft | 318 kts | 112° |
| 2026-05-07 03:09 | 35.55135 | -81.17909 | 9524 ft | 312 kts | 112° |
| 2026-05-07 03:09 | 35.54471 | -81.15419 | 9259 ft | 302 kts | 112° |
| 2026-05-07 03:09 | 35.53835 | -81.12992 | 8983 ft | 294 kts | 112° |
| 2026-05-07 03:09 | 35.53222 | -81.10641 | 8662 ft | 288 kts | 112° |
| 2026-05-07 03:10 | 35.52618 | -81.08312 | 8346 ft | 282 kts | 112° |
| 2026-05-07 03:10 | 35.52032 | -81.06054 | 8134 ft | 272 kts | 112° |
| 2026-05-07 03:10 | 35.51476 | -81.03891 | 7876 ft | 260 kts | 112° |
| 2026-05-07 03:10 | 35.50950 | -81.01818 | 7627 ft | 248 kts | 112° |
| 2026-05-07 03:11 | 35.50452 | -80.99844 | 7376 ft | 236 kts | 112° |
| 2026-05-07 03:11 | 35.49981 | -80.97964 | 7115 ft | 227 kts | 112° |
| 2026-05-07 03:11 | 35.49370 | -80.96219 | 6849 ft | 218 kts | 135° |
| 2026-05-07 03:11 | 35.48381 | -80.94855 | 6646 ft | 213 kts | 141° |
| 2026-05-07 03:12 | 35.47349 | -80.93552 | 6414 ft | 213 kts | 142° |
| 2026-05-07 03:12 | 35.46324 | -80.92269 | 6185 ft | 213 kts | 142° |
| 2026-05-07 03:12 | 35.45198 | -80.91145 | 5910 ft | 203 kts | 166° |
| 2026-05-07 03:12 | 35.43898 | -80.90970 | 5684 ft | 180 kts | 199° |
| 2026-05-07 03:13 | 35.42703 | -80.91338 | 5442 ft | 176 kts | 201° |
| 2026-05-07 03:13 | 35.41530 | -80.91722 | 5192 ft | 174 kts | 201° |
| 2026-05-07 03:13 | 35.40326 | -80.92136 | 4543 ft | 188 kts | 202° |
| 2026-05-07 03:13 | 35.39040 | -80.92592 | 3990 ft | 192 kts | 202° |
| 2026-05-07 03:14 | 35.37786 | -80.93028 | 3718 ft | 182 kts | 202° |
| 2026-05-07 03:14 | 35.36605 | -80.93429 | 3489 ft | 172 kts | 201° |
| 2026-05-07 03:14 | 35.34427 | -80.94162 | 3087 ft | 160 kts | 202° |
| 2026-05-07 03:15 | 35.33359 | -80.94524 | 3006 ft | 156 kts | 202° |
| 2026-05-07 03:15 | 35.32366 | -80.94848 | 2961 ft | 137 kts | 202° |
| 2026-05-07 03:15 | 35.31438 | -80.95125 | 2466 ft | 143 kts | 202° |
| 2026-05-07 03:15 | 35.30495 | -80.95408 | 2284 ft | 134 kts | 201° |
| 2026-05-07 03:16 | 35.29654 | -80.95685 | 2090 ft | 119 kts | 200° |
| 2026-05-07 03:16 | 35.28799 | -80.95763 | 1995 ft | 130 kts | 185° |
| 2026-05-07 03:16 | 35.27877 | -80.95739 | 1807 ft | 133 kts | 186° |
| 2026-05-07 03:16 | 35.26957 | -80.95678 | 1609 ft | 135 kts | 181° |
| 2026-05-07 03:17 | 35.26007 | -80.95597 | 1420 ft | 141 kts | 179° |
| 2026-05-07 03:17 | 35.24994 | -80.95509 | 1204 ft | 149 kts | 180° |
| 2026-05-07 03:17 | 35.23933 | -80.95428 | 1011 ft | 158 kts | 178° |
| 2026-05-07 03:17 | 35.22813 | -80.95323 | 792 ft | 164 kts | 178° |
| 2026-05-07 03:18 | 35.21751 | -80.95234 | 741 ft | 126 kts | 176° |
| 2026-05-07 03:18 | 35.21161 | -80.95182 | 735 ft | 48 kts | 175° |
| 2026-05-07 03:18 | 35.20849 | -80.95154 | 735 ft | 38 kts | 175° |
| 2026-05-07 03:18 | 35.20622 | -80.95054 | 736 ft | 30 kts | 146° |
| 2026-05-07 03:19 | 35.20641 | -80.94937 | 732 ft | 19 kts | 357° |
| 2026-05-07 03:19 | 35.20770 | -80.94949 | 731 ft | 18 kts | 356° |
| 2026-05-07 03:19 | 35.20896 | -80.94953 | 724 ft | 19 kts | 360° |
| 2026-05-07 03:19 | 35.21023 | -80.94970 | 729 ft | 18 kts | 357° |
| 2026-05-07 03:20 | 35.21146 | -80.94980 | 731 ft | 17 kts | 355° |
| 2026-05-07 03:20 | 35.21263 | -80.94996 | 732 ft | 17 kts | 359° |
| 2026-05-07 03:20 | 35.21377 | -80.94998 | 732 ft | 16 kts | 353° |
| 2026-05-07 03:20 | 35.21486 | -80.95010 | 732 ft | 15 kts | 359° |
| 2026-05-07 03:21 | 35.21583 | -80.94986 | 731 ft | 15 kts | 47° |
| 2026-05-07 03:21 | 35.21609 | -80.94850 | 731 ft | 19 kts | 84° |
| 2026-05-07 03:21 | 35.21655 | -80.94719 | 731 ft | 18 kts | 16° |
| 2026-05-07 03:21 | 35.21778 | -80.94736 | 731 ft | 17 kts | 357° |
| 2026-05-07 03:22 | 35.21887 | -80.94702 | 731 ft | 17 kts | 55° |
| 2026-05-07 03:22 | 35.21878 | -80.94612 | 731 ft | 6 kts | 97° |
| 2026-05-07 03:22 | 35.21873 | -80.94576 | 731 ft | 0 kts | 97° |